Time;durP1;ratioP1;P1;durP2;ratioP2;P2;SDS_P1;SDS_P2;PMS_P1;PMS_P2;Temp;Humidity;BMP_temperature;BMP_pressure;BME280_temperature;BME280_humidity;BME280_pressure;Samples;Min_cycle;Max_cycle;Signal;HPM_P1;HPM_P2
2022/04/29 00:02:12;;;;;;;14.25;8.27;;;;;;;9.96;61.31;94441.53;5079253;28;20322;-72
2022/04/29 00:04:38;;;;;;;12.07;7.85;;;;;;;9.97;61.17;94429.78;5078932;28;20095;-72
2022/04/29 00:07:06;;;;;;;11.68;8.23;;;;;;;9.90;61.32;94440.84;5076856;28;20048;-72
2022/04/29 00:09:31;;;;;;;12.45;8.93;;;;;;;9.92;61.40;94432.56;5065540;28;20020;-72
2022/04/29 00:11:57;;;;;;;12.88;9.00;;;;;;;9.93;61.57;94426.94;5064565;28;20021;-73
2022/04/29 00:14:25;;;;;;;14.30;9.43;;;;;;;9.93;61.95;94431.47;5065522;28;20021;-73
2022/04/29 00:16:51;;;;;;;12.65;9.32;;;;;;;9.92;61.21;94427.25;5064292;28;20254;-73
2022/04/29 00:19:17;;;;;;;11.60;8.27;;;;;;;9.88;61.89;94427.03;5065537;28;20024;-72
2022/04/29 00:21:43;;;;;;;12.93;8.63;;;;;;;9.84;62.08;94426.81;5065581;28;20109;-72
2022/04/29 00:24:12;;;;;;;11.93;8.20;;;;;;;9.87;61.79;94422.00;5065380;28;20021;-72
2022/04/29 00:26:39;;;;;;;15.05;9.07;;;;;;;9.92;61.59;94427.25;5065394;28;20334;-72
2022/04/29 00:29:05;;;;;;;11.90;8.25;;;;;;;9.86;61.70;94425.75;5065499;28;20021;-72
2022/04/29 00:31:31;;;;;;;13.40;8.88;;;;;;;9.90;61.83;94424.84;5065451;28;20028;-72
2022/04/29 00:33:57;;;;;;;14.65;9.60;;;;;;;9.94;61.92;94428.50;5064948;28;20335;-72
2022/04/29 00:36:23;;;;;;;13.00;8.68;;;;;;;9.94;62.21;94425.06;5065184;28;20111;-72
2022/04/29 00:38:48;;;;;;;12.68;8.50;;;;;;;9.95;62.04;94426.63;5065261;28;20029;-72
2022/04/29 00:41:22;;;;;;;15.40;9.65;;;;;;;9.95;62.21;94414.13;5065183;28;20028;-73
2022/04/29 00:44:07;;;;;;;12.48;8.27;;;;;;;9.95;61.98;94415.97;5065066;28;20209;-72
2022/04/29 00:46:38;;;;;;;12.57;9.20;;;;;;;9.99;62.25;94414.31;5065133;28;20315;-73
2022/04/29 00:49:05;;;;;;;13.45;8.75;;;;;;;9.97;62.26;94405.81;5065060;28;20031;-72
2022/04/29 00:51:32;;;;;;;14.93;9.63;;;;;;;9.99;62.27;94406.31;5065095;28;20216;-73
2022/04/29 00:53:58;;;;;;;15.00;9.30;;;;;;;10.02;62.21;94406.53;5064864;28;20039;-73
2022/04/29 00:56:28;;;;;;;12.82;8.75;;;;;;;10.06;62.14;94409.41;5064686;28;20087;-73
2022/04/29 00:59:07;;;;;;;13.25;8.68;;;;;;;10.11;61.69;94405.84;5064853;28;20311;-74
2022/04/29 01:01:34;;;;;;;15.52;9.20;;;;;;;10.06;61.53;94393.41;5064890;28;20023;-73
2022/04/29 01:04:04;;;;;;;15.18;10.00;;;;;;;10.04;62.24;94399.03;5064642;28;20013;-73
2022/04/29 01:06:30;;;;;;;12.25;8.07;;;;;;;10.05;61.83;94405.13;5064693;28;20096;-73
2022/04/29 01:08:56;;;;;;;13.73;8.90;;;;;;;10.04;62.07;94395.59;5064595;28;20098;-72
2022/04/29 01:11:25;;;;;;;14.73;10.00;;;;;;;10.02;62.14;94405.75;5063360;28;20033;-72
2022/04/29 01:13:52;;;;;;;15.18;9.60;;;;;;;10.07;62.19;94394.97;5064431;28;20025;-72
2022/04/29 01:16:19;;;;;;;12.50;8.73;;;;;;;10.09;61.99;94387.47;5064334;28;20035;-72
2022/04/29 01:18:51;;;;;;;12.43;8.68;;;;;;;9.97;61.33;94395.97;5064146;28;20219;-72
2022/04/29 01:21:18;;;;;;;11.10;7.95;;;;;;;10.01;61.33;94385.50;5063998;28;20046;-72
2022/04/29 01:23:43;;;;;;;12.88;8.40;;;;;;;9.91;61.24;94386.50;5064224;28;20025;-72
2022/04/29 01:26:14;;;;;;;18.55;8.65;;;;;;;9.87;61.22;94396.19;5064361;28;20024;-72
2022/04/29 01:28:42;;;;;;;13.02;8.60;;;;;;;9.88;61.35;94396.97;5064272;28;20204;-72
2022/04/29 01:31:11;;;;;;;12.05;7.85;;;;;;;9.76;61.49;94379.59;5063900;28;20094;-72
2022/04/29 01:33:40;;;;;;;12.95;8.02;;;;;;;9.78;61.57;94388.06;5064327;28;20223;-72
2022/04/29 01:36:06;;;;;;;12.57;8.43;;;;;;;9.78;61.78;94382.75;5064346;28;20035;-72
2022/04/29 01:38:31;;;;;;;12.35;7.82;;;;;;;9.76;61.49;94381.47;5064288;28;20087;-72
2022/04/29 01:40:57;;;;;;;12.85;7.95;;;;;;;9.78;61.82;94382.75;5064129;28;20322;-72
2022/04/29 01:43:22;;;;;;;11.18;7.22;;;;;;;9.83;61.88;94385.31;5064037;28;20043;-72
2022/04/29 01:45:48;;;;;;;12.30;8.60;;;;;;;9.84;61.92;94381.56;5063939;28;20021;-72
2022/04/29 01:48:13;;;;;;;10.93;7.95;;;;;;;9.80;62.02;94380.56;5063838;28;20064;-72
2022/04/29 01:50:38;;;;;;;10.90;7.80;;;;;;;9.80;62.17;94401.88;5063801;28;20029;-72
2022/04/29 01:53:04;;;;;;;13.15;8.30;;;;;;;9.75;62.03;94391.31;5063898;28;20033;-72
2022/04/29 01:55:29;;;;;;;12.43;8.10;;;;;;;9.77;62.20;94397.16;5063472;28;20246;-72
2022/04/29 01:57:56;;;;;;;11.68;7.68;;;;;;;9.75;62.26;94399.31;5063751;28;20332;-72
2022/04/29 02:00:22;;;;;;;13.75;7.57;;;;;;;9.67;62.99;94394.66;5063626;28;20078;-72
2022/04/29 02:02:47;;;;;;;12.60;7.95;;;;;;;9.64;62.79;94397.91;5063619;28;20017;-73
2022/04/29 02:05:13;;;;;;;12.13;8.32;;;;;;;9.59;63.25;94392.69;5063473;28;20024;-73
2022/04/29 02:07:40;;;;;;;14.27;9.23;;;;;;;9.62;63.08;94389.44;5063428;28;20017;-73
2022/04/29 02:10:06;;;;;;;13.00;8.52;;;;;;;9.63;63.22;94393.69;5063714;28;20207;-73
2022/04/29 02:12:34;;;;;;;15.30;8.23;;;;;;;9.65;63.54;94388.84;5063418;28;20096;-72
2022/04/29 02:14:59;;;;;;;12.23;7.75;;;;;;;9.62;63.58;94400.06;5063340;28;20025;-72
2022/04/29 02:17:24;;;;;;;11.52;7.93;;;;;;;9.60;63.27;94397.69;5063252;28;20063;-72
2022/04/29 02:19:50;;;;;;;13.88;8.20;;;;;;;9.60;63.29;94396.91;5063389;28;20371;-72
2022/04/29 02:22:15;;;;;;;12.80;7.70;;;;;;;9.54;63.77;94393.53;5063313;28;20036;-72
2022/04/29 02:24:42;;;;;;;12.65;8.48;;;;;;;9.55;64.06;94407.66;5063250;28;20029;-72
2022/04/29 02:27:08;;;;;;;11.07;8.07;;;;;;;9.53;64.09;94394.63;5063113;28;20028;-73
2022/04/29 02:29:34;;;;;;;12.20;7.78;;;;;;;9.42;64.81;94411.84;5063350;28;20025;-72
2022/04/29 02:32:00;;;;;;;15.43;7.93;;;;;;;9.36;65.39;94400.53;5062767;28;20044;-72
2022/04/29 02:34:25;;;;;;;15.57;8.82;;;;;;;9.36;65.48;94399.72;5063035;28;20025;-72
2022/04/29 02:36:52;;;;;;;13.90;8.77;;;;;;;9.36;65.58;94413.81;5062999;28;20032;-72
2022/04/29 02:39:18;;;;;;;14.57;10.07;;;;;;;9.40;65.63;94409.50;5062962;28;20028;-73
2022/04/29 02:41:44;;;;;;;14.20;9.20;;;;;;;9.40;65.88;94398.84;5062742;28;20086;-73
2022/04/29 02:44:10;;;;;;;14.05;8.80;;;;;;;9.39;65.84;94405.25;5062915;28;20032;-73
2022/04/29 02:46:35;;;;;;;15.90;9.65;;;;;;;9.38;65.76;94401.03;5063085;28;20020;-73
2022/04/29 02:49:01;;;;;;;20.77;9.98;;;;;;;9.38;65.87;94402.88;5062960;28;20024;-73
2022/04/29 02:51:26;;;;;;;17.63;9.20;;;;;;;9.36;65.65;94392.53;5063049;28;20053;-73
2022/04/29 02:53:52;;;;;;;13.10;9.10;;;;;;;9.34;65.91;94397.38;5062930;28;20033;-73
2022/04/29 02:56:18;;;;;;;19.50;9.30;;;;;;;9.35;65.73;94401.59;5062543;28;20045;-73
2022/04/29 02:58:44;;;;;;;15.43;8.48;;;;;;;9.38;65.61;94405.53;5062900;28;20272;-73
2022/04/29 03:01:10;;;;;;;11.82;7.55;;;;;;;9.35;66.23;94404.25;5062809;28;20024;-73
2022/04/29 03:03:35;;;;;;;11.68;7.88;;;;;;;9.35;66.86;94409.56;5062745;28;20025;-73
2022/04/29 03:06:01;;;;;;;13.18;8.18;;;;;;;9.30;67.13;94404.34;5062786;28;20027;-73
2022/04/29 03:08:27;;;;;;;12.85;7.97;;;;;;;9.30;67.26;94404.34;5062851;28;20029;-72
2022/04/29 03:10:53;;;;;;;11.63;7.63;;;;;;;9.30;67.08;94403.53;5062740;28;20031;-72
2022/04/29 03:13:18;;;;;;;12.48;7.88;;;;;;;9.26;67.13;94403.34;5062607;28;20024;-72
2022/04/29 03:15:44;;;;;;;15.68;7.80;;;;;;;9.23;67.34;94410.03;5062583;28;20032;-72
2022/04/29 03:18:18;;;;;;;12.70;7.63;;;;;;;9.25;67.10;94412.41;5062838;28;20334;-72
2022/04/29 03:20:45;;;;;;;11.70;7.75;;;;;;;9.30;67.05;94404.34;5062590;28;20032;-72
2022/04/29 03:23:12;;;;;;;11.27;7.15;;;;;;;9.38;66.72;94409.00;5062633;28;20079;-71
2022/04/29 03:25:40;;;;;;;10.00;6.72;;;;;;;9.42;66.39;94407.34;5062803;28;20033;-71
2022/04/29 03:28:06;;;;;;;10.77;7.22;;;;;;;9.48;66.53;94417.88;5061599;28;20200;-71
2022/04/29 03:30:31;;;;;;;9.95;6.65;;;;;;;9.57;66.06;94416.16;5062557;28;20092;-71
2022/04/29 03:32:58;;;;;;;11.13;7.18;;;;;;;9.60;65.86;94410.22;5062579;28;20196;-72
2022/04/29 03:35:25;;;;;;;10.70;6.97;;;;;;;9.58;65.94;94412.38;5062423;28;20100;-71
2022/04/29 03:37:52;;;;;;;10.80;7.28;;;;;;;9.56;66.19;94418.00;5062317;28;20075;-72
2022/04/29 03:40:22;;;;;;;9.05;6.30;;;;;;;9.53;66.39;94417.81;5062415;28;20024;-72
2022/04/29 03:42:49;;;;;;;11.13;6.70;;;;;;;9.51;66.37;94420.75;5063016;28;20059;-72
2022/04/29 03:45:15;;;;;;;10.65;7.03;;;;;;;9.48;66.77;94412.56;5066298;28;20032;-72
2022/04/29 03:47:42;;;;;;;12.18;7.90;;;;;;;9.48;66.77;94416.00;5066268;28;20334;-72
2022/04/29 03:50:08;;;;;;;10.07;6.88;;;;;;;9.48;66.93;94425.88;5066215;28;20024;-73
2022/04/29 03:52:33;;;;;;;11.07;7.22;;;;;;;9.48;66.93;94420.53;5065880;28;20029;-73
2022/04/29 03:54:59;;;;;;;12.43;7.72;;;;;;;9.50;67.34;94423.69;5066016;28;20031;-73
2022/04/29 03:57:24;;;;;;;12.68;8.20;;;;;;;9.47;67.66;94421.63;5065869;28;20335;-73
2022/04/29 03:59:50;;;;;;;12.40;8.85;;;;;;;9.39;68.28;94412.44;5066096;28;20063;-71
2022/04/29 04:02:16;;;;;;;12.48;6.93;;;;;;;9.36;68.41;94427.13;5065693;28;20088;-72
2022/04/29 04:04:41;;;;;;;11.57;6.75;;;;;;;9.38;69.00;94424.97;5066024;28;20024;-72
2022/04/29 04:07:07;;;;;;;13.30;7.93;;;;;;;9.41;68.76;94421.72;5065888;28;20058;-72
2022/04/29 04:09:32;;;;;;;13.55;8.13;;;;;;;9.40;68.84;94427.31;5065726;28;20020;-72
2022/04/29 04:11:58;;;;;;;13.25;7.32;;;;;;;9.43;69.14;94430.19;5065677;28;20101;-72
2022/04/29 04:14:23;;;;;;;11.77;6.80;;;;;;;9.36;68.65;94429.78;5065292;28;20031;-73
2022/04/29 04:16:49;;;;;;;12.50;6.93;;;;;;;9.37;68.74;94431.34;5065585;28;20024;-72
2022/04/29 04:19:14;;;;;;;13.35;8.18;;;;;;;9.39;68.61;94428.41;5065592;28;20029;-72
2022/04/29 04:21:40;;;;;;;16.40;7.60;;;;;;;9.38;68.50;94432.13;5065418;28;20028;-72
2022/04/29 04:24:07;;;;;;;17.38;8.35;;;;;;;9.44;68.42;94430.97;5064833;28;20214;-72
2022/04/29 04:26:32;;;;;;;24.23;9.80;;;;;;;9.43;68.39;94424.88;5064894;28;20032;-72
2022/04/29 04:28:58;;;;;;;10.48;7.32;;;;;;;9.47;67.59;94437.59;5065283;28;20056;-72
2022/04/29 04:31:24;;;;;;;14.30;8.82;;;;;;;9.41;68.13;94432.34;5065329;28;20029;-72
2022/04/29 04:33:53;;;;;;;14.73;9.68;;;;;;;9.44;67.93;94434.44;5065209;28;20029;-73
2022/04/29 04:36:18;;;;;;;13.88;8.35;;;;;;;9.53;67.75;94423.13;5065281;28;20060;-73
2022/04/29 04:38:47;;;;;;;13.85;9.10;;;;;;;9.58;67.54;94441.66;5065171;28;20025;-73
2022/04/29 04:41:16;;;;;;;12.70;7.82;;;;;;;9.62;67.20;94447.97;5065057;28;20092;-72
2022/04/29 04:43:42;;;;;;;15.80;7.70;;;;;;;9.67;67.36;94450.56;5065168;28;20265;-73
2022/04/29 04:46:08;;;;;;;13.25;8.88;;;;;;;9.68;67.67;94446.03;5065234;28;20021;-72
2022/04/29 04:48:33;;;;;;;11.73;7.63;;;;;;;9.68;67.22;94446.81;5064904;28;20028;-72
2022/04/29 04:51:01;;;;;;;12.23;7.75;;;;;;;9.70;67.63;94434.00;5064658;28;20062;-72
2022/04/29 04:53:27;;;;;;;12.18;8.20;;;;;;;9.73;67.72;94435.28;5064872;28;20220;-72
2022/04/29 04:55:53;;;;;;;13.43;7.65;;;;;;;9.78;67.58;94429.88;5064668;28;20043;-72
2022/04/29 04:58:18;;;;;;;13.82;9.02;;;;;;;9.80;67.32;94444.47;5064819;28;20017;-73
2022/04/29 05:00:44;;;;;;;17.15;10.15;;;;;;;9.82;67.69;94447.63;5064880;28;20016;-73
2022/04/29 05:03:09;;;;;;;20.48;11.73;;;;;;;9.80;67.94;94433.81;5064940;28;20319;-72
2022/04/29 05:05:35;;;;;;;21.33;9.32;;;;;;;9.76;68.15;94438.16;5064664;28;20020;-72
2022/04/29 05:08:00;;;;;;;17.02;11.27;;;;;;;9.79;68.30;94434.09;5064322;28;20017;-72
2022/04/29 05:10:25;;;;;;;23.60;11.85;;;;;;;9.89;68.25;94441.94;5064674;28;20021;-73
2022/04/29 05:12:51;;;;;;;19.50;12.43;;;;;;;9.94;67.84;94438.38;5064709;28;20028;-73
2022/04/29 05:15:16;;;;;;;18.75;9.88;;;;;;;9.86;68.48;94431.84;5064485;28;20078;-73
2022/04/29 05:17:42;;;;;;;17.80;10.68;;;;;;;9.83;68.03;94441.22;5064481;28;20052;-73
2022/04/29 05:20:12;;;;;;;19.52;11.77;;;;;;;9.90;67.81;94443.50;5064412;28;20051;-73
2022/04/29 05:22:39;;;;;;;22.25;13.40;;;;;;;9.98;68.15;94436.72;5064269;28;20068;-72
2022/04/29 05:25:05;;;;;;;17.52;11.15;;;;;;;10.04;67.87;94443.53;5064383;28;20020;-72
2022/04/29 05:27:31;;;;;;;17.55;10.55;;;;;;;10.16;67.37;94438.50;5064126;28;20017;-72
2022/04/29 05:29:57;;;;;;;16.13;9.57;;;;;;;10.27;70.31;94440.97;5063842;28;20047;-70
2022/04/29 05:32:23;;;;;;;14.27;10.05;;;;;;;10.30;66.70;94440.38;5063920;28;20021;-72
2022/04/29 05:34:49;;;;;;;15.43;10.20;;;;;;;10.25;66.71;94449.25;5063846;28;20326;-71
2022/04/29 05:37:15;;;;;;;16.40;10.38;;;;;;;10.19;66.95;94443.22;5063719;28;20024;-71
2022/04/29 05:42:24;;;;;;;22.55;10.93;;;;;;;9.93;68.17;94445.59;5063842;28;20024;-71
2022/04/29 05:44:50;;;;;;;19.27;10.80;;;;;;;9.90;68.55;94445.38;5063739;28;20088;-71
2022/04/29 05:47:17;;;;;;;17.75;11.23;;;;;;;9.94;69.04;94438.38;5063717;28;20062;-71
2022/04/29 05:49:42;;;;;;;17.90;10.15;;;;;;;10.07;68.17;94448.25;5063794;28;20195;-72
2022/04/29 05:52:10;;;;;;;17.15;11.13;;;;;;;10.23;67.67;94449.53;5063854;28;20100;-72
2022/04/29 05:54:36;;;;;;;17.38;9.73;;;;;;;10.33;67.43;94448.59;5063684;28;20021;-72
2022/04/29 05:57:03;;;;;;;19.35;9.50;;;;;;;10.40;67.14;94456.16;5063422;28;20045;-72
2022/04/29 05:59:29;;;;;;;16.55;10.52;;;;;;;10.44;66.72;94452.63;5063489;28;20017;-72
2022/04/29 06:01:55;;;;;;;15.73;10.45;;;;;;;10.41;66.84;94453.22;5063485;28;20311;-72
2022/04/29 06:04:21;;;;;;;16.88;9.40;;;;;;;10.47;67.03;94451.25;5063461;28;20100;-72
2022/04/29 06:06:47;;;;;;;16.25;9.20;;;;;;;10.55;66.68;94453.22;5062717;28;20036;-72
2022/04/29 06:09:12;;;;;;;13.52;9.25;;;;;;;10.55;65.81;94463.88;5063277;28;20020;-71
2022/04/29 06:11:38;;;;;;;13.43;9.30;;;;;;;10.68;68.11;94462.28;5063195;28;20091;-63
2022/04/29 06:14:04;;;;;;;14.13;8.93;;;;;;;10.78;66.05;94469.28;5063291;28;20230;-63
2022/04/29 06:16:29;;;;;;;15.45;10.18;;;;;;;10.89;67.26;94468.00;5063175;28;20033;-63
2022/04/29 06:18:55;;;;;;;13.55;9.55;;;;;;;11.00;66.34;94460.53;5063297;28;20027;-63
2022/04/29 06:21:20;;;;;;;18.20;11.40;;;;;;;11.12;65.02;94460.03;5063101;28;20021;-63
2022/04/29 06:23:46;;;;;;;16.92;10.35;;;;;;;11.08;65.54;94469.72;5063121;28;20103;-64
2022/04/29 06:26:12;;;;;;;23.65;11.85;;;;;;;11.08;65.16;94467.06;5063149;28;20013;-63
2022/04/29 06:28:38;;;;;;;15.20;9.50;;;;;;;11.14;64.62;94461.28;5062966;28;20043;-63
2022/04/29 06:31:04;;;;;;;15.68;9.60;;;;;;;11.26;64.41;94466.09;5062837;28;20130;-64
2022/04/29 06:33:30;;;;;;;17.08;10.52;;;;;;;11.35;62.98;94458.16;5062807;28;20103;-63
2022/04/29 06:35:56;;;;;;;17.77;8.77;;;;;;;11.28;63.40;94466.59;5062609;28;20078;-63
2022/04/29 06:38:22;;;;;;;14.25;9.52;;;;;;;11.35;63.24;94469.63;5062948;28;20227;-63
2022/04/29 06:40:47;;;;;;;12.60;8.45;;;;;;;11.26;63.41;94460.75;5062767;28;20024;-63
2022/04/29 06:43:13;;;;;;;13.00;8.80;;;;;;;11.30;63.36;94461.75;5063126;28;20037;-63
2022/04/29 06:45:38;;;;;;;13.52;9.07;;;;;;;11.44;62.78;94461.69;5062430;28;20031;-64
2022/04/29 06:48:04;;;;;;;14.80;9.38;;;;;;;11.56;62.11;94469.13;5062562;28;20032;-64
2022/04/29 06:50:29;;;;;;;13.63;8.55;;;;;;;11.52;61.56;94463.63;5061191;28;20036;-71
2022/04/29 06:52:55;;;;;;;17.45;8.60;;;;;;;11.40;61.81;94456.16;5061339;28;20048;-79
2022/04/29 06:55:20;;;;;;;15.57;8.98;;;;;;;11.40;61.78;94466.84;5062100;28;20338;-79
2022/04/29 06:57:52;;;;;;;18.98;10.35;;;;;;;11.35;62.92;94455.47;5062340;28;20327;-82
2022/04/29 07:00:19;;;;;;;15.02;9.95;;;;;;;11.45;62.49;94453.34;5062905;28;20021;-78
2022/04/29 07:02:47;;;;;;;16.95;10.00;;;;;;;11.59;62.19;94463.19;5062942;28;20075;-81
2022/04/29 07:05:13;;;;;;;16.15;9.10;;;;;;;11.64;60.96;94465.72;5062807;28;20049;-78
2022/04/29 07:07:38;;;;;;;15.52;9.40;;;;;;;11.57;61.12;94460.81;5062491;28;20025;-74
2022/04/29 07:10:05;;;;;;;13.80;8.15;;;;;;;11.54;60.39;94449.97;5062371;28;20272;-74
2022/04/29 07:12:34;;;;;;;12.15;8.52;;;;;;;11.71;60.88;94460.75;5062653;28;20052;-81
2022/04/29 07:15:02;;;;;;;13.15;8.60;;;;;;;11.75;60.35;94464.41;5062305;28;20025;-82
2022/04/29 07:17:28;;;;;;;14.18;9.15;;;;;;;11.77;60.02;94458.75;5062766;28;20048;-83
2022/04/29 07:19:53;;;;;;;14.30;8.57;;;;;;;11.90;59.33;94446.44;5066321;28;20063;-83
2022/04/29 07:22:19;;;;;;;18.38;9.75;;;;;;;12.01;59.91;94451.22;5066436;28;20028;-85
2022/04/29 07:24:45;;;;;;;12.70;8.23;;;;;;;12.04;58.92;94445.25;5066556;28;20048;-83
2022/04/29 07:27:13;;;;;;;11.13;7.78;;;;;;;12.10;59.30;94456.59;5064980;28;20028;-73
2022/04/29 07:29:38;;;;;;;12.35;7.88;;;;;;;12.13;57.96;94463.19;5066063;28;20083;-75
2022/04/29 07:32:04;;;;;;;13.23;8.35;;;;;;;12.07;57.74;94459.09;5066230;28;20029;-75
2022/04/29 07:42:41;;;;;;;11.55;7.63;;;;;;;12.69;56.67;94450.19;5066088;28;20043;-75
2022/04/29 07:45:07;;;;;;;11.48;7.82;;;;;;;12.67;56.80;94455.84;5065752;28;20283;-75
2022/04/29 07:47:35;;;;;;;12.68;8.50;;;;;;;12.68;56.52;94451.28;5065794;28;20185;-75
2022/04/29 07:50:02;;;;;;;13.50;9.63;;;;;;;12.69;56.35;94455.53;5065885;28;20334;-75
2022/04/29 07:52:27;;;;;;;21.70;8.50;;;;;;;12.69;56.50;94450.19;5065966;28;20272;-75
2022/04/29 07:54:53;;;;;;;14.35;8.07;;;;;;;12.74;55.76;94442.81;5065865;28;20078;-75
2022/04/29 07:57:18;;;;;;;12.23;7.15;;;;;;;12.78;55.63;94449.13;5064336;28;20057;-75
2022/04/29 07:59:44;;;;;;;14.20;9.32;;;;;;;12.70;56.27;94449.09;5066063;28;20021;-75
2022/04/29 08:02:09;;;;;;;11.95;8.20;;;;;;;12.77;57.14;94452.88;5065839;28;20207;-75
2022/04/29 08:04:35;;;;;;;12.27;8.45;;;;;;;12.83;56.92;94451.63;5065676;28;20466;-75
2022/04/29 08:07:02;;;;;;;12.57;8.25;;;;;;;12.83;56.93;94450.84;5065686;28;20029;-75
2022/04/29 08:09:28;;;;;;;12.77;8.65;;;;;;;12.88;56.61;94450.69;5065276;28;20021;-75
2022/04/29 08:11:53;;;;;;;12.88;7.82;;;;;;;12.96;56.16;94439.19;5065477;28;20311;-75
2022/04/29 08:14:20;;;;;;;10.10;7.28;;;;;;;12.99;54.47;94437.81;5065657;28;20035;-75
2022/04/29 08:16:45;;;;;;;11.55;7.70;;;;;;;12.94;53.90;94446.75;5065281;28;20017;-74
2022/04/29 08:19:11;;;;;;;9.60;6.40;;;;;;;12.98;53.84;94441.56;5065464;28;20017;-74
2022/04/29 08:21:36;;;;;;;13.40;7.68;;;;;;;13.02;53.68;94448.66;5065493;28;20052;-75
2022/04/29 08:24:02;;;;;;;12.93;7.88;;;;;;;13.07;52.66;94445.06;5065155;28;20032;-74
2022/04/29 08:26:28;;;;;;;12.23;7.82;;;;;;;13.00;52.01;94440.16;5065294;28;20066;-76
2022/04/29 08:28:54;;;;;;;10.48;6.95;;;;;;;13.00;52.18;94442.81;5064646;28;20032;-75
2022/04/29 08:31:21;;;;;;;10.93;7.43;;;;;;;13.06;52.47;94443.47;5065239;28;20025;-74
2022/04/29 08:33:47;;;;;;;13.27;6.93;;;;;;;13.09;52.38;94452.75;5064904;28;20020;-75
2022/04/29 08:36:12;;;;;;;11.15;7.60;;;;;;;13.01;53.44;94452.44;5065187;28;20032;-75
2022/04/29 08:38:38;;;;;;;13.30;7.65;;;;;;;12.91;53.09;94447.41;5064995;28;20021;-83
2022/04/29 08:41:06;;;;;;;11.68;7.63;;;;;;;12.89;53.76;94436.22;5065056;28;20096;-86
2022/04/29 08:43:32;;;;;;;11.32;7.20;;;;;;;12.98;53.65;94447.72;5065066;28;20091;-85
2022/04/29 08:45:59;;;;;;;9.32;6.50;;;;;;;12.93;51.83;94441.75;5065143;28;20054;-84
2022/04/29 08:48:28;;;;;;;10.88;7.20;;;;;;;12.90;52.07;94435.09;5065552;28;20017;-85
2022/04/29 08:50:54;;;;;;;12.40;6.47;;;;;;;12.84;50.85;94436.34;5065038;28;20263;-83
2022/04/29 08:53:20;;;;;;;9.25;6.20;;;;;;;12.90;51.79;94435.09;5065023;28;20049;-82
2022/04/29 08:58:43;;;;;;;9.18;6.07;;;;;;;13.08;50.34;94427.09;5065206;28;20047;-85
2022/04/29 09:01:16;;;;;;;11.43;6.13;;;;;;;13.19;51.02;94428.38;5064876;28;20029;-86
2022/04/29 09:03:44;;;;;;;7.40;5.22;;;;;;;13.40;50.20;94421.28;5065195;28;20021;-80
2022/04/29 09:06:17;;;;;;;12.52;5.38;;;;;;;13.54;49.60;94423.03;5063896;28;20315;-83
2022/04/29 09:08:45;;;;;;;9.57;5.72;;;;;;;13.64;49.13;94415.44;5065292;28;20311;-83
2022/04/29 09:11:24;;;;;;;15.10;6.28;;;;;;;13.86;49.30;94416.34;5064532;28;20258;-80
2022/04/29 09:13:50;;;;;;;12.35;5.85;;;;;;;13.91;48.43;94423.41;5064563;28;20025;-81
2022/04/29 09:16:16;;;;;;;8.35;6.18;;;;;;;14.03;48.33;94415.50;5064645;28;20108;-80
2022/04/29 09:18:53;;;;;;;8.77;5.35;;;;;;;14.21;47.87;94421.59;5064491;28;20035;-81
2022/04/29 09:21:22;;;;;;;9.43;5.65;;;;;;;14.34;47.61;94425.91;5064385;28;20105;-84
2022/04/29 09:23:56;;;;;;;7.40;5.28;;;;;;;14.52;47.06;94405.16;5064199;28;20017;-85
2022/04/29 09:26:41;;;;;;;10.93;6.15;;;;;;;14.60;46.71;94407.06;5064703;28;20029;-85
2022/04/29 09:29:14;;;;;;;9.15;5.53;;;;;;;14.54;46.42;94408.31;5064323;28;20348;-84
2022/04/29 09:31:54;;;;;;;11.13;6.32;;;;;;;14.50;46.92;94412.75;5064297;28;20025;-85
2022/04/29 09:34:24;;;;;;;10.30;6.43;;;;;;;14.35;47.01;94418.66;5064170;28;20088;-84
2022/04/29 09:36:50;;;;;;;8.50;5.85;;;;;;;14.26;47.82;94418.72;5063091;28;20662;-86
2022/04/29 09:39:30;;;;;;;8.18;5.03;;;;;;;14.32;47.87;94412.06;5064471;28;20033;-86
2022/04/29 09:41:57;;;;;;;8.57;5.97;;;;;;;14.33;47.14;94419.00;5065025;28;20028;-86
2022/04/29 09:44:30;;;;;;;14.45;6.20;;;;;;;14.46;47.21;94411.84;5064498;28;20017;-86
2022/04/29 09:47:10;;;;;;;10.38;5.55;;;;;;;14.60;46.14;94414.31;5063764;28;20021;-85
2022/04/29 09:49:36;;;;;;;10.07;6.30;;;;;;;14.67;46.21;94413.81;5064053;28;20198;-84
2022/04/29 09:52:11;;;;;;;11.65;6.22;;;;;;;14.74;45.74;94408.72;5062673;28;20021;-83
2022/04/29 09:54:39;;;;;;;20.33;6.70;;;;;;;14.69;46.13;94404.31;5063892;28;20051;-82
2022/04/29 09:57:11;;;;;;;10.07;6.05;;;;;;;14.85;45.30;94407.22;5062537;28;20075;-86
2022/04/29 09:59:46;;;;;;;;;;;;;;;14.79;45.01;94408.50;5064116;28;20039;-86
2022/04/29 10:02:16;;;;;;;10.05;5.45;;;;;;;14.51;44.98;94408.16;5064280;28;19905;-86
2022/04/29 10:04:46;;;;;;;7.68;5.03;;;;;;;14.54;44.53;94418.25;5062394;28;20048;-85
2022/04/29 10:07:14;;;;;;;8.13;5.30;;;;;;;14.49;44.46;94396.97;5062582;28;20013;-83
2022/04/29 10:09:44;;;;;;;14.05;5.60;;;;;;;14.54;44.93;94402.94;5063325;28;20108;-84
2022/04/29 10:12:15;;;;;;;9.35;5.72;;;;;;;14.50;44.27;94396.66;5063271;28;20048;-78
2022/04/29 10:14:42;;;;;;;8.38;5.75;;;;;;;14.59;44.68;94396.63;5063035;28;20035;-78
2022/04/29 10:22:46;;;;;;;7.07;5.05;;;;;;;14.83;43.69;94394.09;5063321;28;20019;-82
2022/04/29 10:25:13;;;;;;;7.30;5.00;;;;;;;14.89;43.37;94383.19;5063401;28;20024;-82
2022/04/29 10:27:40;;;;;;;7.68;4.90;;;;;;;14.97;42.76;94383.13;5062970;28;20017;-83
2022/04/29 10:30:07;;;;;;;7.65;4.85;;;;;;;15.10;42.33;94380.50;5063225;28;20031;-83
2022/04/29 10:33:06;;;;;;;7.20;5.18;;;;;;;15.37;42.13;94388.00;5061676;28;20021;-80
2022/04/29 10:35:56;;;;;;;6.70;5.13;;;;;;;15.35;42.68;94382.19;5063154;28;20059;-84
2022/04/29 10:38:26;;;;;;;11.25;5.43;;;;;;;15.34;41.98;94375.22;5063099;28;20021;-83
2022/04/29 10:41:07;;;;;;;9.13;6.20;;;;;;;15.35;41.78;94371.44;5062882;28;20214;-81
2022/04/29 10:43:36;;;;;;;6.45;4.60;;;;;;;15.43;41.67;94383.22;5062709;28;20071;-83
2022/04/29 10:46:31;;;;;;;9.77;5.13;;;;;;;15.33;42.38;94379.03;5063085;28;20017;-84
2022/04/29 10:49:30;;;;;;;7.53;5.30;;;;;;;15.32;41.91;94372.09;5062697;28;20020;-81
2022/04/29 10:52:00;;;;;;;11.02;5.80;;;;;;;15.41;42.41;94372.81;5062685;28;20108;-82
2022/04/29 10:54:46;;;;;;;10.30;6.25;;;;;;;15.47;41.96;94370.72;5063135;28;20084;-83
2022/04/29 10:57:15;;;;;;;7.88;4.97;;;;;;;15.54;41.89;94356.72;5060893;28;20036;-78
2022/04/29 10:59:56;;;;;;;14.90;6.38;;;;;;;15.65;43.01;94358.66;5062651;28;20214;-84
2022/04/29 11:02:27;;;;;;;7.60;5.30;;;;;;;15.82;42.85;94363.09;5063084;28;20025;-85
2022/04/29 11:04:53;;;;;;;8.18;5.68;;;;;;;15.77;41.82;94357.94;5062341;28;20263;-80
2022/04/29 11:07:44;;;;;;;9.98;5.50;;;;;;;15.62;41.38;94356.63;5062621;28;20017;-84
2022/04/29 11:10:17;;;;;;;10.02;6.05;;;;;;;15.54;42.31;94348.66;5062638;28;20020;-82
2022/04/29 11:12:55;;;;;;;8.85;5.72;;;;;;;15.67;42.23;94350.25;5062740;28;20051;-76
2022/04/29 11:15:23;;;;;;;9.25;5.35;;;;;;;15.50;42.59;94339.69;5062636;28;20025;-77
2022/04/29 11:17:49;;;;;;;8.90;6.13;;;;;;;15.56;43.03;94343.75;5062094;28;20041;-77
2022/04/29 11:20:23;;;;;;;10.00;5.90;;;;;;;15.81;42.38;94333.84;5062498;28;20029;-79
2022/04/29 11:25:52;;;;;;;8.73;6.15;;;;;;;15.78;42.37;94335.31;5062482;28;20350;-80
2022/04/29 11:28:18;;;;;;;9.00;6.68;;;;;;;15.75;43.39;94336.00;5062284;28;20035;-75
2022/04/29 11:30:45;;;;;;;9.80;6.13;;;;;;;15.95;42.38;94338.91;5061848;28;20029;-74
2022/04/29 11:33:11;;;;;;;8.48;6.22;;;;;;;16.09;42.05;94325.91;5060623;28;20100;-75
2022/04/29 11:35:36;;;;;;;10.68;5.65;;;;;;;16.15;41.93;94319.19;5062120;28;20020;-74
2022/04/29 11:38:02;;;;;;;9.63;5.85;;;;;;;16.32;41.92;94312.78;5062026;28;20083;-75
2022/04/29 11:40:28;;;;;;;9.82;5.57;;;;;;;16.39;41.55;94333.75;5060476;28;20025;-73
2022/04/29 11:42:54;;;;;;;8.50;6.45;;;;;;;16.33;40.69;94321.66;5061673;28;20021;-74
2022/04/29 11:45:22;;;;;;;8.43;6.00;;;;;;;16.31;40.89;94318.53;5062036;28;20048;-75
2022/04/29 11:47:47;;;;;;;8.13;5.38;;;;;;;16.25;41.23;94310.66;5061516;28;20020;-74
2022/04/29 11:50:13;;;;;;;13.55;6.65;;;;;;;16.32;41.03;94312.00;5062016;28;20027;-74
2022/04/29 11:52:39;;;;;;;8.85;5.65;;;;;;;16.44;40.68;94317.38;5061878;28;20214;-75
2022/04/29 11:55:18;;;;;;;10.35;5.70;;;;;;;16.60;39.81;94310.16;5061979;28;20219;-75